sensor_id;sensor_type;location;lat;lon;timestamp;temperature;humidity
19496;DHT22;9888;48.606;9.630;2023-03-03T00:01:54;1.00;99.90
19496;DHT22;9888;48.606;9.630;2023-03-03T00:04:21;1.00;99.90
19496;DHT22;9888;48.606;9.630;2023-03-03T00:06:48;1.10;99.90
19496;DHT22;9888;48.606;9.630;2023-03-03T00:09:15;1.20;99.90
19496;DHT22;9888;48.606;9.630;2023-03-03T00:11:41;1.10;99.90
19496;DHT22;9888;48.606;9.630;2023-03-03T00:14:30;1.10;99.90
19496;DHT22;9888;48.606;9.630;2023-03-03T00:17:00;1.10;99.90
19496;DHT22;9888;48.606;9.630;2023-03-03T00:19:37;1.20;99.90
19496;DHT22;9888;48.606;9.630;2023-03-03T00:22:26;1.20;99.90
19496;DHT22;9888;48.606;9.630;2023-03-03T00:24:54;1.30;99.90
19496;DHT22;9888;48.606;9.630;2023-03-03T00:27:34;1.40;99.90
19496;DHT22;9888;48.606;9.630;2023-03-03T00:30:02;1.30;99.90
19496;DHT22;9888;48.606;9.630;2023-03-03T00:35:31;1.40;99.90
19496;DHT22;9888;48.606;9.630;2023-03-03T00:38:18;1.40;99.90
19496;DHT22;9888;48.606;9.630;2023-03-03T00:40:46;1.40;99.90
19496;DHT22;9888;48.606;9.630;2023-03-03T00:43:34;1.50;99.90
19496;DHT22;9888;48.606;9.630;2023-03-03T00:46:03;1.60;99.90
19496;DHT22;9888;48.606;9.630;2023-03-03T00:48:41;1.60;99.90
19496;DHT22;9888;48.606;9.630;2023-03-03T00:51:29;1.60;99.90
19496;DHT22;9888;48.606;9.630;2023-03-03T00:53:57;1.50;99.90
19496;DHT22;9888;48.606;9.630;2023-03-03T00:56:25;1.50;99.90
19496;DHT22;9888;48.606;9.630;2023-03-03T00:58:52;1.40;99.90
19496;DHT22;9888;48.606;9.630;2023-03-03T01:01:19;1.40;99.90
19496;DHT22;9888;48.606;9.630;2023-03-03T01:03:46;1.30;99.90
19496;DHT22;9888;48.606;9.630;2023-03-03T01:06:13;1.20;99.90
19496;DHT22;9888;48.606;9.630;2023-03-03T01:08:40;1.10;99.90
19496;DHT22;9888;48.606;9.630;2023-03-03T01:11:14;0.90;99.90
19496;DHT22;9888;48.606;9.630;2023-03-03T01:13:44;0.70;99.90
19496;DHT22;9888;48.606;9.630;2023-03-03T01:16:12;0.60;99.90
19496;DHT22;9888;48.606;9.630;2023-03-03T01:18:39;0.40;99.90
19496;DHT22;9888;48.606;9.630;2023-03-03T01:21:08;0.20;99.90
19496;DHT22;9888;48.606;9.630;2023-03-03T01:23:35;0.10;99.90
19496;DHT22;9888;48.606;9.630;2023-03-03T01:26:03;-0.10;99.90
19496;DHT22;9888;48.606;9.630;2023-03-03T01:28:31;-0.10;99.90
19496;DHT22;9888;48.606;9.630;2023-03-03T01:31:02;-0.20;99.90
19496;DHT22;9888;48.606;9.630;2023-03-03T01:33:30;-0.30;99.90
19496;DHT22;9888;48.606;9.630;2023-03-03T01:35:57;-0.40;99.90
19496;DHT22;9888;48.606;9.630;2023-03-03T01:38:23;-0.40;99.90
19496;DHT22;9888;48.606;9.630;2023-03-03T01:40:57;-0.40;99.90
19496;DHT22;9888;48.606;9.630;2023-03-03T01:43:28;-0.50;99.90
19496;DHT22;9888;48.606;9.630;2023-03-03T01:48:29;-0.80;99.90
19496;DHT22;9888;48.606;9.630;2023-03-03T01:56:00;-0.90;99.90
19496;DHT22;9888;48.606;9.630;2023-03-03T01:58:32;-0.80;99.90
19496;DHT22;9888;48.606;9.630;2023-03-03T02:01:04;-0.70;99.90
19496;DHT22;9888;48.606;9.630;2023-03-03T02:03:33;-0.70;99.90
19496;DHT22;9888;48.606;9.630;2023-03-03T02:06:06;-0.60;99.90
19496;DHT22;9888;48.606;9.630;2023-03-03T02:09:09;-0.50;99.90
19496;DHT22;9888;48.606;9.630;2023-03-03T02:11:41;-0.40;99.90
19496;DHT22;9888;48.606;9.630;2023-03-03T02:14:10;-0.40;99.90
19496;DHT22;9888;48.606;9.630;2023-03-03T02:16:37;-0.30;99.90
19496;DHT22;9888;48.606;9.630;2023-03-03T02:19:07;-0.30;99.90
19496;DHT22;9888;48.606;9.630;2023-03-03T02:21:35;-0.20;99.90
19496;DHT22;9888;48.606;9.630;2023-03-03T02:24:23;-0.20;99.90
19496;DHT22;9888;48.606;9.630;2023-03-03T02:26:51;-0.10;99.90
19496;DHT22;9888;48.606;9.630;2023-03-03T02:29:18;0.00;99.90
19496;DHT22;9888;48.606;9.630;2023-03-03T02:31:45;0.10;99.90
19496;DHT22;9888;48.606;9.630;2023-03-03T02:34:12;0.10;99.90
19496;DHT22;9888;48.606;9.630;2023-03-03T02:36:39;0.20;99.90
19496;DHT22;9888;48.606;9.630;2023-03-03T02:39:17;0.20;99.90
19496;DHT22;9888;48.606;9.630;2023-03-03T02:44:39;0.30;99.90
19496;DHT22;9888;48.606;9.630;2023-03-03T02:47:06;0.30;99.90
19496;DHT22;9888;48.606;9.630;2023-03-03T02:49:35;0.40;99.90
19496;DHT22;9888;48.606;9.630;2023-03-03T02:52:03;0.40;99.90
19496;DHT22;9888;48.606;9.630;2023-03-03T02:54:31;0.50;99.90
19496;DHT22;9888;48.606;9.630;2023-03-03T02:56:59;0.60;99.90
19496;DHT22;9888;48.606;9.630;2023-03-03T02:59:26;0.50;99.90
19496;DHT22;9888;48.606;9.630;2023-03-03T03:01:53;0.40;99.90
19496;DHT22;9888;48.606;9.630;2023-03-03T03:04:24;0.40;99.90
19496;DHT22;9888;48.606;9.630;2023-03-03T03:06:53;0.40;99.90
19496;DHT22;9888;48.606;9.630;2023-03-03T03:09:22;0.50;99.90
19496;DHT22;9888;48.606;9.630;2023-03-03T03:11:49;0.60;99.90
19496;DHT22;9888;48.606;9.630;2023-03-03T03:14:16;0.50;99.90
19496;DHT22;9888;48.606;9.630;2023-03-03T03:16:43;0.60;99.90
19496;DHT22;9888;48.606;9.630;2023-03-03T03:19:09;0.60;99.90
19496;DHT22;9888;48.606;9.630;2023-03-03T03:21:36;0.70;99.90
19496;DHT22;9888;48.606;9.630;2023-03-03T03:24:03;0.60;99.90
19496;DHT22;9888;48.606;9.630;2023-03-03T03:26:30;0.60;99.90
19496;DHT22;9888;48.606;9.630;2023-03-03T03:28:57;0.70;99.90
19496;DHT22;9888;48.606;9.630;2023-03-03T03:31:23;0.70;99.90
19496;DHT22;9888;48.606;9.630;2023-03-03T03:33:50;0.70;99.90
19496;DHT22;9888;48.606;9.630;2023-03-03T03:36:17;0.70;99.90
19496;DHT22;9888;48.606;9.630;2023-03-03T03:38:44;0.80;99.90
19496;DHT22;9888;48.606;9.630;2023-03-03T03:41:12;0.80;99.90
19496;DHT22;9888;48.606;9.630;2023-03-03T03:43:39;0.80;99.90
19496;DHT22;9888;48.606;9.630;2023-03-03T03:46:06;0.80;99.90
19496;DHT22;9888;48.606;9.630;2023-03-03T03:48:34;0.80;99.90
19496;DHT22;9888;48.606;9.630;2023-03-03T03:51:01;0.80;99.90
19496;DHT22;9888;48.606;9.630;2023-03-03T03:53:28;0.80;99.90
19496;DHT22;9888;48.606;9.630;2023-03-03T03:55:55;0.80;99.90
19496;DHT22;9888;48.606;9.630;2023-03-03T03:58:23;0.80;99.90
19496;DHT22;9888;48.606;9.630;2023-03-03T04:00:50;0.90;99.90
19496;DHT22;9888;48.606;9.630;2023-03-03T04:03:17;0.90;99.90
19496;DHT22;9888;48.606;9.630;2023-03-03T04:05:44;0.80;99.90
19496;DHT22;9888;48.606;9.630;2023-03-03T04:08:11;0.80;99.90
19496;DHT22;9888;48.606;9.630;2023-03-03T04:10:38;0.80;99.90
19496;DHT22;9888;48.606;9.630;2023-03-03T04:13:05;0.80;99.90
19496;DHT22;9888;48.606;9.630;2023-03-03T04:15:32;0.80;99.90
19496;DHT22;9888;48.606;9.630;2023-03-03T04:17:59;1.00;99.90
19496;DHT22;9888;48.606;9.630;2023-03-03T04:20:25;1.00;99.90
19496;DHT22;9888;48.606;9.630;2023-03-03T04:22:52;1.00;99.90
19496;DHT22;9888;48.606;9.630;2023-03-03T04:25:19;1.00;99.90
19496;DHT22;9888;48.606;9.630;2023-03-03T04:27:47;1.00;99.90
19496;DHT22;9888;48.606;9.630;2023-03-03T04:30:15;1.00;99.90
19496;DHT22;9888;48.606;9.630;2023-03-03T04:32:42;1.00;99.90
19496;DHT22;9888;48.606;9.630;2023-03-03T04:35:10;1.10;99.90
19496;DHT22;9888;48.606;9.630;2023-03-03T04:37:37;1.10;99.90
19496;DHT22;9888;48.606;9.630;2023-03-03T04:40:07;1.00;99.90
19496;DHT22;9888;48.606;9.630;2023-03-03T04:42:34;1.00;99.90
19496;DHT22;9888;48.606;9.630;2023-03-03T04:45:03;1.00;99.90
19496;DHT22;9888;48.606;9.630;2023-03-03T04:47:31;1.00;99.90
19496;DHT22;9888;48.606;9.630;2023-03-03T04:49:59;1.00;99.90
19496;DHT22;9888;48.606;9.630;2023-03-03T04:52:26;1.00;99.90
19496;DHT22;9888;48.606;9.630;2023-03-03T04:54:54;1.00;99.90
19496;DHT22;9888;48.606;9.630;2023-03-03T04:57:21;1.00;99.90
19496;DHT22;9888;48.606;9.630;2023-03-03T04:59:48;1.00;99.90
19496;DHT22;9888;48.606;9.630;2023-03-03T05:02:16;1.00;99.90
19496;DHT22;9888;48.606;9.630;2023-03-03T05:04:43;1.00;99.90
19496;DHT22;9888;48.606;9.630;2023-03-03T05:07:11;1.10;99.90
19496;DHT22;9888;48.606;9.630;2023-03-03T05:09:37;1.10;99.90
19496;DHT22;9888;48.606;9.630;2023-03-03T05:12:05;1.00;99.90
19496;DHT22;9888;48.606;9.630;2023-03-03T05:14:32;1.00;99.90
19496;DHT22;9888;48.606;9.630;2023-03-03T05:16:59;1.10;99.90
19496;DHT22;9888;48.606;9.630;2023-03-03T05:19:26;1.00;99.90
19496;DHT22;9888;48.606;9.630;2023-03-03T05:21:53;1.00;99.90
19496;DHT22;9888;48.606;9.630;2023-03-03T05:24:20;1.00;99.90
19496;DHT22;9888;48.606;9.630;2023-03-03T05:26:48;0.90;99.90
19496;DHT22;9888;48.606;9.630;2023-03-03T05:29:16;0.90;99.90
19496;DHT22;9888;48.606;9.630;2023-03-03T05:31:44;0.90;99.90
19496;DHT22;9888;48.606;9.630;2023-03-03T05:34:11;0.90;99.90
19496;DHT22;9888;48.606;9.630;2023-03-03T05:36:38;0.90;99.90
19496;DHT22;9888;48.606;9.630;2023-03-03T05:39:06;0.90;99.90
19496;DHT22;9888;48.606;9.630;2023-03-03T05:41:33;1.00;99.90
19496;DHT22;9888;48.606;9.630;2023-03-03T05:44:02;1.00;99.90
19496;DHT22;9888;48.606;9.630;2023-03-03T05:46:31;1.00;99.90
19496;DHT22;9888;48.606;9.630;2023-03-03T05:48:58;1.00;99.90
19496;DHT22;9888;48.606;9.630;2023-03-03T05:51:25;1.00;99.90
19496;DHT22;9888;48.606;9.630;2023-03-03T05:53:53;0.90;99.90
19496;DHT22;9888;48.606;9.630;2023-03-03T05:56:20;0.90;99.90
19496;DHT22;9888;48.606;9.630;2023-03-03T05:58:47;0.90;99.90
19496;DHT22;9888;48.606;9.630;2023-03-03T06:01:14;1.00;99.90
19496;DHT22;9888;48.606;9.630;2023-03-03T06:03:41;1.00;99.90
19496;DHT22;9888;48.606;9.630;2023-03-03T06:06:09;1.00;99.90
19496;DHT22;9888;48.606;9.630;2023-03-03T06:08:36;1.00;99.90
19496;DHT22;9888;48.606;9.630;2023-03-03T06:11:03;1.00;99.90
19496;DHT22;9888;48.606;9.630;2023-03-03T06:13:29;1.00;99.90
19496;DHT22;9888;48.606;9.630;2023-03-03T06:15:56;1.00;99.90
19496;DHT22;9888;48.606;9.630;2023-03-03T06:18:23;1.00;99.90
19496;DHT22;9888;48.606;9.630;2023-03-03T06:20:54;1.00;99.90
19496;DHT22;9888;48.606;9.630;2023-03-03T06:23:22;1.00;99.90
19496;DHT22;9888;48.606;9.630;2023-03-03T06:25:49;1.00;99.90
19496;DHT22;9888;48.606;9.630;2023-03-03T06:28:16;1.00;99.90
19496;DHT22;9888;48.606;9.630;2023-03-03T06:30:43;1.00;99.90
19496;DHT22;9888;48.606;9.630;2023-03-03T06:33:10;1.10;99.90
19496;DHT22;9888;48.606;9.630;2023-03-03T06:35:36;1.10;99.90
19496;DHT22;9888;48.606;9.630;2023-03-03T06:38:03;1.20;99.90
19496;DHT22;9888;48.606;9.630;2023-03-03T06:40:29;1.20;99.90
19496;DHT22;9888;48.606;9.630;2023-03-03T06:42:56;1.30;99.90
19496;DHT22;9888;48.606;9.630;2023-03-03T06:45:23;1.40;99.90
19496;DHT22;9888;48.606;9.630;2023-03-03T06:47:50;1.40;99.90
19496;DHT22;9888;48.606;9.630;2023-03-03T06:50:19;1.50;99.90
19496;DHT22;9888;48.606;9.630;2023-03-03T06:52:46;1.50;99.90
19496;DHT22;9888;48.606;9.630;2023-03-03T06:55:20;1.60;99.90
19496;DHT22;9888;48.606;9.630;2023-03-03T06:57:48;1.80;99.90
19496;DHT22;9888;48.606;9.630;2023-03-03T07:00:17;1.80;99.90
19496;DHT22;9888;48.606;9.630;2023-03-03T07:02:47;1.80;99.90
19496;DHT22;9888;48.606;9.630;2023-03-03T07:05:17;1.90;99.90
19496;DHT22;9888;48.606;9.630;2023-03-03T07:07:46;1.90;99.90
19496;DHT22;9888;48.606;9.630;2023-03-03T07:13:28;2.00;99.90
19496;DHT22;9888;48.606;9.630;2023-03-03T07:16:04;2.10;99.90
19496;DHT22;9888;48.606;9.630;2023-03-03T07:18:55;2.10;99.90
19496;DHT22;9888;48.606;9.630;2023-03-03T07:21:36;2.20;99.90
19496;DHT22;9888;48.606;9.630;2023-03-03T07:24:21;2.30;99.90
19496;DHT22;9888;48.606;9.630;2023-03-03T07:26:52;2.30;99.90
19496;DHT22;9888;48.606;9.630;2023-03-03T07:29:24;2.40;99.90
19496;DHT22;9888;48.606;9.630;2023-03-03T07:31:57;2.40;99.90
19496;DHT22;9888;48.606;9.630;2023-03-03T07:40:36;2.50;99.90
19496;DHT22;9888;48.606;9.630;2023-03-03T07:43:36;2.40;99.90
19496;DHT22;9888;48.606;9.630;2023-03-03T07:48:49;2.60;99.90
19496;DHT22;9888;48.606;9.630;2023-03-03T07:51:38;2.60;99.90
19496;DHT22;9888;48.606;9.630;2023-03-03T07:56:46;2.60;99.90
19496;DHT22;9888;48.606;9.630;2023-03-03T07:59:35;2.70;99.90
19496;DHT22;9888;48.606;9.630;2023-03-03T08:02:02;2.80;99.90
19496;DHT22;9888;48.606;9.630;2023-03-03T08:07:13;3.10;99.90
19496;DHT22;9888;48.606;9.630;2023-03-03T08:10:01;3.30;99.90
19496;DHT22;9888;48.606;9.630;2023-03-03T08:12:40;3.40;99.90
19496;DHT22;9888;48.606;9.630;2023-03-03T08:15:30;3.60;99.90
19496;DHT22;9888;48.606;9.630;2023-03-03T08:18:07;3.80;99.90
19496;DHT22;9888;48.606;9.630;2023-03-03T08:20:47;3.90;99.90
19496;DHT22;9888;48.606;9.630;2023-03-03T08:23:16;4.00;99.90
19496;DHT22;9888;48.606;9.630;2023-03-03T08:25:43;4.00;99.90
19496;DHT22;9888;48.606;9.630;2023-03-03T08:28:10;4.10;99.90
19496;DHT22;9888;48.606;9.630;2023-03-03T08:30:38;4.20;99.90
19496;DHT22;9888;48.606;9.630;2023-03-03T08:33:04;4.20;99.90
19496;DHT22;9888;48.606;9.630;2023-03-03T08:35:31;4.20;99.90
19496;DHT22;9888;48.606;9.630;2023-03-03T08:37:59;4.30;99.90
19496;DHT22;9888;48.606;9.630;2023-03-03T08:40:26;4.40;99.90
19496;DHT22;9888;48.606;9.630;2023-03-03T08:42:53;4.50;99.90
19496;DHT22;9888;48.606;9.630;2023-03-03T08:45:21;4.40;99.90
19496;DHT22;9888;48.606;9.630;2023-03-03T08:47:48;4.50;99.90
19496;DHT22;9888;48.606;9.630;2023-03-03T08:50:15;4.50;99.90
19496;DHT22;9888;48.606;9.630;2023-03-03T08:52:45;4.40;99.90
19496;DHT22;9888;48.606;9.630;2023-03-03T08:55:13;4.50;99.90
19496;DHT22;9888;48.606;9.630;2023-03-03T08:57:41;4.50;99.90
19496;DHT22;9888;48.606;9.630;2023-03-03T09:00:10;4.50;99.90
19496;DHT22;9888;48.606;9.630;2023-03-03T09:02:37;4.60;99.90
19496;DHT22;9888;48.606;9.630;2023-03-03T09:05:05;4.70;99.90
19496;DHT22;9888;48.606;9.630;2023-03-03T09:07:32;4.60;99.90
19496;DHT22;9888;48.606;9.630;2023-03-03T09:09:59;4.40;99.90
19496;DHT22;9888;48.606;9.630;2023-03-03T09:12:35;4.30;99.90
19496;DHT22;9888;48.606;9.630;2023-03-03T09:17:50;4.50;99.90
19496;DHT22;9888;48.606;9.630;2023-03-03T09:20:40;4.60;99.90
19496;DHT22;9888;48.606;9.630;2023-03-03T09:23:47;4.80;99.90
19496;DHT22;9888;48.606;9.630;2023-03-03T09:29:37;5.30;99.90
19496;DHT22;9888;48.606;9.630;2023-03-03T09:32:25;5.60;99.90
19496;DHT22;9888;48.606;9.630;2023-03-03T09:38:14;5.90;99.90
19496;DHT22;9888;48.606;9.630;2023-03-03T09:41:08;6.20;99.90
19496;DHT22;9888;48.606;9.630;2023-03-03T09:43:44;6.50;99.90
19496;DHT22;9888;48.606;9.630;2023-03-03T09:58:22;7.90;99.90
19496;DHT22;9888;48.606;9.630;2023-03-03T10:13:49;9.80;99.90
19496;DHT22;9888;48.606;9.630;2023-03-03T10:16:42;10.00;99.90
19496;DHT22;9888;48.606;9.630;2023-03-03T10:19:35;10.70;99.90
19496;DHT22;9888;48.606;9.630;2023-03-03T10:22:32;10.90;99.90
19496;DHT22;9888;48.606;9.630;2023-03-03T10:28:39;15.80;99.90
19496;DHT22;9888;48.606;9.630;2023-03-03T10:34:16;15.30;99.90
19496;DHT22;9888;48.606;9.630;2023-03-03T10:40:02;13.50;99.90
19496;DHT22;9888;48.606;9.630;2023-03-03T10:42:40;13.90;99.90
19496;DHT22;9888;48.606;9.630;2023-03-03T10:45:30;13.20;99.90
19496;DHT22;9888;48.606;9.630;2023-03-03T10:54:13;11.10;99.90
19496;DHT22;9888;48.606;9.630;2023-03-03T10:57:04;11.50;99.90
19496;DHT22;9888;48.606;9.630;2023-03-03T11:02:31;13.30;99.90
19496;DHT22;9888;48.606;9.630;2023-03-03T11:05:39;15.70;99.90
19496;DHT22;9888;48.606;9.630;2023-03-03T11:08:39;16.00;99.90
19496;DHT22;9888;48.606;9.630;2023-03-03T11:13:53;15.00;99.90
19496;DHT22;9888;48.606;9.630;2023-03-03T11:38:22;13.30;99.90
19496;DHT22;9888;48.606;9.630;2023-03-03T11:41:03;13.10;99.90
19496;DHT22;9888;48.606;9.630;2023-03-03T11:46:10;11.80;99.90
19496;DHT22;9888;48.606;9.630;2023-03-03T11:48:52;12.00;99.90
19496;DHT22;9888;48.606;9.630;2023-03-03T11:51:54;12.40;99.90
19496;DHT22;9888;48.606;9.630;2023-03-03T11:57:31;11.40;99.90
19496;DHT22;9888;48.606;9.630;2023-03-03T12:00:31;11.50;99.90
19496;DHT22;9888;48.606;9.630;2023-03-03T12:05:53;12.30;99.90
19496;DHT22;9888;48.606;9.630;2023-03-03T12:11:26;12.60;99.90
19496;DHT22;9888;48.606;9.630;2023-03-03T12:16:38;12.80;99.90
19496;DHT22;9888;48.606;9.630;2023-03-03T12:22:07;13.30;99.90
19496;DHT22;9888;48.606;9.630;2023-03-03T12:24:40;13.70;99.90
19496;DHT22;9888;48.606;9.630;2023-03-03T12:27:20;14.00;99.90
19496;DHT22;9888;48.606;9.630;2023-03-03T12:35:57;13.40;99.90
19496;DHT22;9888;48.606;9.630;2023-03-03T12:39:11;12.50;99.90
19496;DHT22;9888;48.606;9.630;2023-03-03T12:41:53;12.00;99.90
19496;DHT22;9888;48.606;9.630;2023-03-03T12:44:43;11.90;99.90
19496;DHT22;9888;48.606;9.630;2023-03-03T12:58:18;11.80;99.90
19496;DHT22;9888;48.606;9.630;2023-03-03T13:17:33;14.90;99.90
19496;DHT22;9888;48.606;9.630;2023-03-03T13:20:29;14.20;99.90
19496;DHT22;9888;48.606;9.630;2023-03-03T13:23:30;13.90;99.90
19496;DHT22;9888;48.606;9.630;2023-03-03T13:26:31;13.50;99.90
19496;DHT22;9888;48.606;9.630;2023-03-03T13:31:39;12.30;99.90
19496;DHT22;9888;48.606;9.630;2023-03-03T13:34:24;12.40;99.90
19496;DHT22;9888;48.606;9.630;2023-03-03T13:37:03;12.70;99.90
19496;DHT22;9888;48.606;9.630;2023-03-03T13:39:43;12.90;99.90
19496;DHT22;9888;48.606;9.630;2023-03-03T13:42:32;13.00;99.90
19496;DHT22;9888;48.606;9.630;2023-03-03T13:48:07;13.10;99.90
19496;DHT22;9888;48.606;9.630;2023-03-03T13:50:52;13.10;99.90
19496;DHT22;9888;48.606;9.630;2023-03-03T14:04:54;15.10;99.90
19496;DHT22;9888;48.606;9.630;2023-03-03T14:07:33;17.70;99.90
19496;DHT22;9888;48.606;9.630;2023-03-03T14:16:08;16.30;99.90
19496;DHT22;9888;48.606;9.630;2023-03-03T14:18:54;17.80;99.90
19496;DHT22;9888;48.606;9.630;2023-03-03T14:22:03;19.10;98.20
19496;DHT22;9888;48.606;9.630;2023-03-03T14:24:26;19.40;99.10
19496;DHT22;9888;48.606;9.630;2023-03-03T14:26:57;19.80;97.00
19496;DHT22;9888;48.606;9.630;2023-03-03T14:32:00;19.20;96.60
19496;DHT22;9888;48.606;9.630;2023-03-03T14:34:37;19.40;97.00
19496;DHT22;9888;48.606;9.630;2023-03-03T14:42:55;20.40;94.20
19496;DHT22;9888;48.606;9.630;2023-03-03T14:48:24;19.40;94.30
19496;DHT22;9888;48.606;9.630;2023-03-03T14:51:22;19.60;95.00
19496;DHT22;9888;48.606;9.630;2023-03-03T14:53:50;20.00;94.00
19496;DHT22;9888;48.606;9.630;2023-03-03T14:56:26;20.10;93.80
19496;DHT22;9888;48.606;9.630;2023-03-03T14:59:19;20.40;92.90
19496;DHT22;9888;48.606;9.630;2023-03-03T15:02:02;20.20;92.80
19496;DHT22;9888;48.606;9.630;2023-03-03T15:04:38;20.20;92.90
19496;DHT22;9888;48.606;9.630;2023-03-03T15:07:35;20.00;92.20
19496;DHT22;9888;48.606;9.630;2023-03-03T15:10:07;19.90;92.20
19496;DHT22;9888;48.606;9.630;2023-03-03T15:12:37;19.90;92.80
19496;DHT22;9888;48.606;9.630;2023-03-03T15:15:15;20.10;92.80
19496;DHT22;9888;48.606;9.630;2023-03-03T15:18:03;20.40;91.70
19496;DHT22;9888;48.606;9.630;2023-03-03T15:21:01;20.10;91.60
19496;DHT22;9888;48.606;9.630;2023-03-03T15:27:00;19.50;91.40
19496;DHT22;9888;48.606;9.630;2023-03-03T15:32:35;19.40;91.70
19496;DHT22;9888;48.606;9.630;2023-03-03T15:38:13;19.00;91.30
19496;DHT22;9888;48.606;9.630;2023-03-03T15:40:53;19.00;90.50
19496;DHT22;9888;48.606;9.630;2023-03-03T15:58:13;17.80;91.60
19496;DHT22;9888;48.606;9.630;2023-03-03T16:01:11;18.00;90.40
19496;DHT22;9888;48.606;9.630;2023-03-03T16:03:45;17.80;90.60
19496;DHT22;9888;48.606;9.630;2023-03-03T16:09:02;16.40;91.10
19496;DHT22;9888;48.606;9.630;2023-03-03T16:11:43;15.10;92.60
19496;DHT22;9888;48.606;9.630;2023-03-03T16:14:35;15.00;93.40
19496;DHT22;9888;48.606;9.630;2023-03-03T16:17:23;14.80;93.70
19496;DHT22;9888;48.606;9.630;2023-03-03T16:20:33;14.70;93.50
19496;DHT22;9888;48.606;9.630;2023-03-03T16:31:32;11.70;95.80
19496;DHT22;9888;48.606;9.630;2023-03-03T16:34:18;9.60;98.20
19496;DHT22;9888;48.606;9.630;2023-03-03T16:37:06;8.10;99.90
19496;DHT22;9888;48.606;9.630;2023-03-03T16:40:10;7.10;99.90
19496;DHT22;9888;48.606;9.630;2023-03-03T16:42:38;6.10;99.90
19496;DHT22;9888;48.606;9.630;2023-03-03T16:45:29;5.30;99.90
19496;DHT22;9888;48.606;9.630;2023-03-03T16:48:41;4.80;99.90
19496;DHT22;9888;48.606;9.630;2023-03-03T16:53:46;4.20;99.90
19496;DHT22;9888;48.606;9.630;2023-03-03T16:56:20;3.80;99.90
19496;DHT22;9888;48.606;9.630;2023-03-03T17:01:49;3.20;99.90
19496;DHT22;9888;48.606;9.630;2023-03-03T17:04:50;3.00;99.90
19496;DHT22;9888;48.606;9.630;2023-03-03T17:18:25;2.00;99.90
19496;DHT22;9888;48.606;9.630;2023-03-03T17:21:00;1.90;99.90
19496;DHT22;9888;48.606;9.630;2023-03-03T17:26:33;1.60;99.90
19496;DHT22;9888;48.606;9.630;2023-03-03T17:29:19;1.50;99.90
19496;DHT22;9888;48.606;9.630;2023-03-03T17:38:00;1.10;99.90
19496;DHT22;9888;48.606;9.630;2023-03-03T17:46:17;0.90;99.90
19496;DHT22;9888;48.606;9.630;2023-03-03T17:48:58;0.90;99.90
19496;DHT22;9888;48.606;9.630;2023-03-03T18:03:00;0.60;99.90
19496;DHT22;9888;48.606;9.630;2023-03-03T18:05:40;0.40;99.90
19496;DHT22;9888;48.606;9.630;2023-03-03T18:13:49;0.20;99.90
19496;DHT22;9888;48.606;9.630;2023-03-03T18:16:34;0.10;99.90
19496;DHT22;9888;48.606;9.630;2023-03-03T18:22:06;0.00;99.90
19496;DHT22;9888;48.606;9.630;2023-03-03T18:24:53;0.00;99.90
19496;DHT22;9888;48.606;9.630;2023-03-03T18:27:29;0.00;99.90
19496;DHT22;9888;48.606;9.630;2023-03-03T18:30:20;0.00;99.90
19496;DHT22;9888;48.606;9.630;2023-03-03T18:33:10;-0.10;99.90
19496;DHT22;9888;48.606;9.630;2023-03-03T18:35:45;-0.10;99.90
19496;DHT22;9888;48.606;9.630;2023-03-03T18:40:52;-0.20;99.90
19496;DHT22;9888;48.606;9.630;2023-03-03T18:43:50;-0.30;99.90
19496;DHT22;9888;48.606;9.630;2023-03-03T18:48:58;-0.50;99.90
19496;DHT22;9888;48.606;9.630;2023-03-03T18:54:23;-0.40;99.90
19496;DHT22;9888;48.606;9.630;2023-03-03T19:02:28;-0.30;99.90
19496;DHT22;9888;48.606;9.630;2023-03-03T19:05:16;-0.30;99.90
19496;DHT22;9888;48.606;9.630;2023-03-03T19:07:51;-0.20;99.90
19496;DHT22;9888;48.606;9.630;2023-03-03T19:12:58;-0.40;99.90
19496;DHT22;9888;48.606;9.630;2023-03-03T19:18:23;-0.40;99.90
19496;DHT22;9888;48.606;9.630;2023-03-03T19:20:57;-0.40;99.90
19496;DHT22;9888;48.606;9.630;2023-03-03T19:41:01;-0.90;99.90
19496;DHT22;9888;48.606;9.630;2023-03-03T19:43:29;-0.90;99.90
19496;DHT22;9888;48.606;9.630;2023-03-03T19:46:24;-0.90;99.90
19496;DHT22;9888;48.606;9.630;2023-03-03T20:00:48;-1.00;99.90
19496;DHT22;9888;48.606;9.630;2023-03-03T20:17:36;-1.30;99.90
19496;DHT22;9888;48.606;9.630;2023-03-03T20:37:03;-1.60;99.90
19496;DHT22;9888;48.606;9.630;2023-03-03T20:39:44;-1.60;99.90
19496;DHT22;9888;48.606;9.630;2023-03-03T20:45:30;-1.70;99.90
19496;DHT22;9888;48.606;9.630;2023-03-03T20:54:12;-1.80;99.90
19496;DHT22;9888;48.606;9.630;2023-03-03T20:59:40;-1.90;99.90
19496;DHT22;9888;48.606;9.630;2023-03-03T21:05:11;-1.80;99.90
19496;DHT22;9888;48.606;9.630;2023-03-03T21:07:59;-1.80;99.90
19496;DHT22;9888;48.606;9.630;2023-03-03T21:10:30;-1.90;99.90
19496;DHT22;9888;48.606;9.630;2023-03-03T21:13:26;-2.00;99.90
19496;DHT22;9888;48.606;9.630;2023-03-03T21:16:05;-1.90;99.90
19496;DHT22;9888;48.606;9.630;2023-03-03T21:18:35;-1.90;99.90
19496;DHT22;9888;48.606;9.630;2023-03-03T21:21:02;-2.00;99.90
19496;DHT22;9888;48.606;9.630;2023-03-03T21:23:30;-2.00;99.90
19496;DHT22;9888;48.606;9.630;2023-03-03T21:25:57;-2.00;99.90
19496;DHT22;9888;48.606;9.630;2023-03-03T21:28:32;-2.00;99.90
19496;DHT22;9888;48.606;9.630;2023-03-03T21:31:09;-2.10;99.90
19496;DHT22;9888;48.606;9.630;2023-03-03T21:33:56;-2.20;99.90
19496;DHT22;9888;48.606;9.630;2023-03-03T21:36:43;-2.30;99.90
19496;DHT22;9888;48.606;9.630;2023-03-03T21:39:36;-2.20;99.90
19496;DHT22;9888;48.606;9.630;2023-03-03T21:44:47;-2.20;99.90
19496;DHT22;9888;48.606;9.630;2023-03-03T21:47:21;-2.30;99.90
19496;DHT22;9888;48.606;9.630;2023-03-03T21:49:50;-2.30;99.90
19496;DHT22;9888;48.606;9.630;2023-03-03T21:52:18;-2.30;99.90
19496;DHT22;9888;48.606;9.630;2023-03-03T21:54:47;-2.30;99.90
19496;DHT22;9888;48.606;9.630;2023-03-03T22:12:47;-2.50;99.90
19496;DHT22;9888;48.606;9.630;2023-03-03T22:15:14;-2.60;99.90
19496;DHT22;9888;48.606;9.630;2023-03-03T22:17:41;-2.50;99.90
19496;DHT22;9888;48.606;9.630;2023-03-03T22:20:10;-2.50;99.90
19496;DHT22;9888;48.606;9.630;2023-03-03T22:22:41;-2.50;99.90
19496;DHT22;9888;48.606;9.630;2023-03-03T22:25:09;-2.50;99.90
19496;DHT22;9888;48.606;9.630;2023-03-03T22:27:36;-2.60;99.90
19496;DHT22;9888;48.606;9.630;2023-03-03T22:30:02;-2.70;99.90
19496;DHT22;9888;48.606;9.630;2023-03-03T22:32:29;-2.70;99.90
19496;DHT22;9888;48.606;9.630;2023-03-03T22:34:57;-2.70;99.90
19496;DHT22;9888;48.606;9.630;2023-03-03T22:37:24;-2.80;99.90
19496;DHT22;9888;48.606;9.630;2023-03-03T22:39:51;-2.80;99.90
19496;DHT22;9888;48.606;9.630;2023-03-03T22:42:19;-2.80;99.90
19496;DHT22;9888;48.606;9.630;2023-03-03T22:44:45;-2.90;99.90
19496;DHT22;9888;48.606;9.630;2023-03-03T22:47:12;-2.80;99.90
19496;DHT22;9888;48.606;9.630;2023-03-03T22:49:39;-2.90;99.90
19496;DHT22;9888;48.606;9.630;2023-03-03T22:52:05;-2.90;99.90
19496;DHT22;9888;48.606;9.630;2023-03-03T22:54:32;-2.90;99.90
19496;DHT22;9888;48.606;9.630;2023-03-03T22:57:00;-3.00;99.90
19496;DHT22;9888;48.606;9.630;2023-03-03T22:59:27;-3.00;99.90
19496;DHT22;9888;48.606;9.630;2023-03-03T23:01:54;-3.00;99.90
19496;DHT22;9888;48.606;9.630;2023-03-03T23:04:21;-2.90;99.90
19496;DHT22;9888;48.606;9.630;2023-03-03T23:06:48;-2.90;99.90
19496;DHT22;9888;48.606;9.630;2023-03-03T23:09:32;-2.80;99.90
19496;DHT22;9888;48.606;9.630;2023-03-03T23:11:59;-2.80;99.90